KPTS/PTS METAR and TAF weather

Enter ICAO airport designator
Station Type Date Time Source
KPTS METAR 2020/04/04 04:35 UTC NOAA

KPTS 040435Z AUTO 02008KT 10SM OVC009 01/00 A3018 RMK AO2 T00050000


Station Type Date Time Source
KPTS Decoded METAR 2020/04/04 04:35 UTC NOAA

Station name not available
Apr 04, 2020 - 12:35 AM EDT / 2020.04.04 0435 UTC
Wind: from the NNE (020 degrees) at 9 MPH (8 KT):0
Visibility: 10 mile(s):0
Sky conditions: overcast
Temperature: 32.9 F (0.5 C)
Windchill: 24 F (-4 C):1
Dew Point: 32.0 F (0.0 C)
Relative Humidity: 96%
Pressure (altimeter): 30.18 in. Hg (1022 hPa)
ob: KPTS 040435Z AUTO 02008KT 10SM OVC009 01/00 A3018 RMK AO2 T00050000
cycle: 4

Station Type Date Time Source
KPTS TAF UTC NOAA

Error!

Example: see airport list